sensor_id;sensor_type;location;lat;lon;timestamp;temperature;humidity
37874;DHT22;23709;48.078;11.684;2023-12-07T05:06:31;-0.10;99.90
37874;DHT22;23709;48.078;11.684;2023-12-07T15:42:47;0.40;99.90
37874;DHT22;23709;48.078;11.684;2023-12-07T15:45:21;0.20;99.90
37874;DHT22;23709;48.078;11.684;2023-12-07T16:51:51;0.10;99.90
37874;DHT22;23709;48.078;11.684;2023-12-07T16:54:23;0.00;99.90
37874;DHT22;23709;48.078;11.684;2023-12-07T16:56:56;-0.10;99.90
37874;DHT22;23709;48.078;11.684;2023-12-07T16:59:29;-0.10;99.90
37874;DHT22;23709;48.078;11.684;2023-12-07T17:02:01;0.00;99.90
37874;DHT22;23709;48.078;11.684;2023-12-07T17:04:35;0.00;99.90
37874;DHT22;23709;48.078;11.684;2023-12-07T17:07:07;-0.10;99.90
37874;DHT22;23709;48.078;11.684;2023-12-07T17:09:40;-0.10;99.90
37874;DHT22;23709;48.078;11.684;2023-12-07T17:12:13;-0.20;99.90
37874;DHT22;23709;48.078;11.684;2023-12-07T17:14:46;-0.20;99.90
37874;DHT22;23709;48.078;11.684;2023-12-07T17:17:19;-0.20;99.90
37874;DHT22;23709;48.078;11.684;2023-12-07T17:19:53;-0.30;99.90
37874;DHT22;23709;48.078;11.684;2023-12-07T17:22:50;-0.40;99.90
37874;DHT22;23709;48.078;11.684;2023-12-07T17:25:23;-0.40;99.90
37874;DHT22;23709;48.078;11.684;2023-12-07T17:27:56;-0.50;99.90
37874;DHT22;23709;48.078;11.684;2023-12-07T17:30:30;-0.50;99.90
37874;DHT22;23709;48.078;11.684;2023-12-07T17:33:03;-0.50;99.90
37874;DHT22;23709;48.078;11.684;2023-12-07T17:35:36;-0.40;99.90
37874;DHT22;23709;48.078;11.684;2023-12-07T17:38:09;-0.40;99.90
37874;DHT22;23709;48.078;11.684;2023-12-07T17:40:42;-0.50;99.90
37874;DHT22;23709;48.078;11.684;2023-12-07T17:43:14;-0.50;99.90
37874;DHT22;23709;48.078;11.684;2023-12-07T17:45:47;-0.50;99.90
37874;DHT22;23709;48.078;11.684;2023-12-07T17:48:19;-0.50;99.90
37874;DHT22;23709;48.078;11.684;2023-12-07T17:50:51;-0.50;99.90
37874;DHT22;23709;48.078;11.684;2023-12-07T17:53:24;-0.60;99.90
37874;DHT22;23709;48.078;11.684;2023-12-07T17:55:56;-0.60;99.90
37874;DHT22;23709;48.078;11.684;2023-12-07T17:58:28;-0.70;99.90
37874;DHT22;23709;48.078;11.684;2023-12-07T18:01:01;-0.70;99.90
37874;DHT22;23709;48.078;11.684;2023-12-07T18:03:35;-0.70;99.90
37874;DHT22;23709;48.078;11.684;2023-12-07T18:06:09;-0.70;99.90
37874;DHT22;23709;48.078;11.684;2023-12-07T18:08:43;-0.70;99.90
37874;DHT22;23709;48.078;11.684;2023-12-07T18:11:23;-0.70;99.90
37874;DHT22;23709;48.078;11.684;2023-12-07T18:13:55;-0.80;99.90
37874;DHT22;23709;48.078;11.684;2023-12-07T18:16:28;-0.80;99.90
37874;DHT22;23709;48.078;11.684;2023-12-07T18:19:00;-0.90;99.90
37874;DHT22;23709;48.078;11.684;2023-12-07T18:21:33;-0.90;99.90
37874;DHT22;23709;48.078;11.684;2023-12-07T18:24:07;-0.90;99.90
37874;DHT22;23709;48.078;11.684;2023-12-07T18:26:39;-0.90;99.90
37874;DHT22;23709;48.078;11.684;2023-12-07T18:29:11;-0.90;99.90
37874;DHT22;23709;48.078;11.684;2023-12-07T18:31:44;-1.00;99.90
37874;DHT22;23709;48.078;11.684;2023-12-07T18:34:19;-1.00;99.90
37874;DHT22;23709;48.078;11.684;2023-12-07T18:36:52;-1.00;99.90
37874;DHT22;23709;48.078;11.684;2023-12-07T18:39:25;-1.00;99.90
37874;DHT22;23709;48.078;11.684;2023-12-07T18:41:57;-1.00;99.90
37874;DHT22;23709;48.078;11.684;2023-12-07T18:44:30;-1.00;99.90
37874;DHT22;23709;48.078;11.684;2023-12-07T18:49:27;-1.00;99.90
37874;DHT22;23709;48.078;11.684;2023-12-07T18:52:00;-1.10;99.90
37874;DHT22;23709;48.078;11.684;2023-12-07T18:54:39;-1.10;99.90
37874;DHT22;23709;48.078;11.684;2023-12-07T19:27:10;-1.90;99.90
37874;DHT22;23709;48.078;11.684;2023-12-07T19:29:43;-2.00;99.90
37874;DHT22;23709;48.078;11.684;2023-12-07T19:32:15;-1.90;99.90
37874;DHT22;23709;48.078;11.684;2023-12-07T19:34:48;-1.90;99.90
37874;DHT22;23709;48.078;11.684;2023-12-07T19:37:20;-1.90;99.90
37874;DHT22;23709;48.078;11.684;2023-12-07T19:39:53;-1.80;99.90
37874;DHT22;23709;48.078;11.684;2023-12-07T19:42:26;-1.70;99.90
37874;DHT22;23709;48.078;11.684;2023-12-07T19:44:59;-1.70;99.90
37874;DHT22;23709;48.078;11.684;2023-12-07T19:47:32;-1.70;99.90
37874;DHT22;23709;48.078;11.684;2023-12-07T19:50:05;-1.60;99.90
37874;DHT22;23709;48.078;11.684;2023-12-07T19:52:38;-1.60;99.90
37874;DHT22;23709;48.078;11.684;2023-12-07T19:55:19;-1.60;99.90
37874;DHT22;23709;48.078;11.684;2023-12-07T19:57:53;-1.60;99.90
37874;DHT22;23709;48.078;11.684;2023-12-07T20:00:26;-1.60;99.90
37874;DHT22;23709;48.078;11.684;2023-12-07T20:02:58;-1.60;99.90
37874;DHT22;23709;48.078;11.684;2023-12-07T20:05:31;-1.60;99.90
37874;DHT22;23709;48.078;11.684;2023-12-07T20:08:03;-1.70;99.90
37874;DHT22;23709;48.078;11.684;2023-12-07T20:10:36;-1.70;99.90
37874;DHT22;23709;48.078;11.684;2023-12-07T20:13:10;-1.70;99.90
37874;DHT22;23709;48.078;11.684;2023-12-07T20:15:42;-1.70;99.90
37874;DHT22;23709;48.078;11.684;2023-12-07T20:18:15;-1.80;99.90
37874;DHT22;23709;48.078;11.684;2023-12-07T20:20:48;-1.80;99.90
37874;DHT22;23709;48.078;11.684;2023-12-07T20:23:21;-1.90;99.90
37874;DHT22;23709;48.078;11.684;2023-12-07T20:25:53;-1.90;99.90
37874;DHT22;23709;48.078;11.684;2023-12-07T20:28:26;-1.90;99.90
37874;DHT22;23709;48.078;11.684;2023-12-07T20:30:59;-1.90;99.90
37874;DHT22;23709;48.078;11.684;2023-12-07T20:33:31;-2.00;99.90
37874;DHT22;23709;48.078;11.684;2023-12-07T20:36:04;-2.10;99.90
37874;DHT22;23709;48.078;11.684;2023-12-07T20:38:37;-2.10;99.90
37874;DHT22;23709;48.078;11.684;2023-12-07T20:41:09;-2.10;99.90
37874;DHT22;23709;48.078;11.684;2023-12-07T20:43:41;-2.20;99.90
37874;DHT22;23709;48.078;11.684;2023-12-07T20:46:14;-2.20;99.90
37874;DHT22;23709;48.078;11.684;2023-12-07T20:48:47;-2.20;99.90
37874;DHT22;23709;48.078;11.684;2023-12-07T20:51:20;-2.30;99.90
37874;DHT22;23709;48.078;11.684;2023-12-07T20:53:53;-2.40;99.90
37874;DHT22;23709;48.078;11.684;2023-12-07T20:56:25;-2.40;99.90
37874;DHT22;23709;48.078;11.684;2023-12-07T20:59:08;-2.40;99.90
37874;DHT22;23709;48.078;11.684;2023-12-07T21:01:42;-2.50;99.90
37874;DHT22;23709;48.078;11.684;2023-12-07T21:04:14;-2.50;99.90
37874;DHT22;23709;48.078;11.684;2023-12-07T21:06:46;-2.60;99.90
37874;DHT22;23709;48.078;11.684;2023-12-07T21:09:19;-2.70;99.90
37874;DHT22;23709;48.078;11.684;2023-12-07T21:11:51;-2.60;99.90
37874;DHT22;23709;48.078;11.684;2023-12-07T21:14:24;-2.50;99.90
37874;DHT22;23709;48.078;11.684;2023-12-07T21:16:57;-2.50;99.90
37874;DHT22;23709;48.078;11.684;2023-12-07T21:19:31;-2.50;99.90
37874;DHT22;23709;48.078;11.684;2023-12-07T21:22:04;-2.50;99.90
37874;DHT22;23709;48.078;11.684;2023-12-07T21:24:36;-2.50;99.90
37874;DHT22;23709;48.078;11.684;2023-12-07T21:27:08;-2.50;99.90
37874;DHT22;23709;48.078;11.684;2023-12-07T21:29:41;-2.60;99.90
37874;DHT22;23709;48.078;11.684;2023-12-07T21:32:13;-2.60;99.90
37874;DHT22;23709;48.078;11.684;2023-12-07T21:34:46;-2.60;99.90
37874;DHT22;23709;48.078;11.684;2023-12-07T21:37:18;-2.70;99.90
37874;DHT22;23709;48.078;11.684;2023-12-07T21:39:50;-2.80;99.90
37874;DHT22;23709;48.078;11.684;2023-12-07T21:42:22;-2.80;99.90
37874;DHT22;23709;48.078;11.684;2023-12-07T21:44:55;-2.80;99.90
37874;DHT22;23709;48.078;11.684;2023-12-07T21:47:27;-2.80;99.90
37874;DHT22;23709;48.078;11.684;2023-12-07T21:50:01;-2.90;99.90
37874;DHT22;23709;48.078;11.684;2023-12-07T21:52:36;-3.00;99.90
37874;DHT22;23709;48.078;11.684;2023-12-07T21:55:08;-3.00;99.90
37874;DHT22;23709;48.078;11.684;2023-12-07T21:57:44;-3.00;99.90
37874;DHT22;23709;48.078;11.684;2023-12-07T22:00:16;-3.00;99.90
37874;DHT22;23709;48.078;11.684;2023-12-07T22:02:49;-3.00;99.90
37874;DHT22;23709;48.078;11.684;2023-12-07T22:05:22;-3.00;99.90
37874;DHT22;23709;48.078;11.684;2023-12-07T22:07:54;-3.00;99.90
37874;DHT22;23709;48.078;11.684;2023-12-07T22:10:27;-3.00;99.90
37874;DHT22;23709;48.078;11.684;2023-12-07T22:13:00;-3.10;99.90
37874;DHT22;23709;48.078;11.684;2023-12-07T22:15:33;-3.10;99.90
37874;DHT22;23709;48.078;11.684;2023-12-07T22:18:05;-3.20;99.90
37874;DHT22;23709;48.078;11.684;2023-12-07T22:20:37;-3.30;99.90
37874;DHT22;23709;48.078;11.684;2023-12-07T22:23:10;-3.30;99.90
37874;DHT22;23709;48.078;11.684;2023-12-07T22:25:42;-3.30;99.90
37874;DHT22;23709;48.078;11.684;2023-12-07T22:28:14;-3.40;99.90
37874;DHT22;23709;48.078;11.684;2023-12-07T22:30:47;-3.40;99.90
37874;DHT22;23709;48.078;11.684;2023-12-07T22:33:19;-3.40;99.90
37874;DHT22;23709;48.078;11.684;2023-12-07T22:35:51;-3.40;99.90
37874;DHT22;23709;48.078;11.684;2023-12-07T22:38:24;-3.40;99.90
37874;DHT22;23709;48.078;11.684;2023-12-07T22:40:56;-3.40;99.90
37874;DHT22;23709;48.078;11.684;2023-12-07T22:43:28;-3.40;99.90
37874;DHT22;23709;48.078;11.684;2023-12-07T22:46:01;-3.50;99.90
37874;DHT22;23709;48.078;11.684;2023-12-07T22:48:33;-3.50;99.90
37874;DHT22;23709;48.078;11.684;2023-12-07T22:51:05;-3.60;99.90
37874;DHT22;23709;48.078;11.684;2023-12-07T22:53:38;-3.60;99.90
37874;DHT22;23709;48.078;11.684;2023-12-07T22:56:10;-3.70;99.90
37874;DHT22;23709;48.078;11.684;2023-12-07T22:58:42;-3.70;99.90
37874;DHT22;23709;48.078;11.684;2023-12-07T23:01:16;-3.70;99.90
37874;DHT22;23709;48.078;11.684;2023-12-07T23:03:48;-3.70;99.90
37874;DHT22;23709;48.078;11.684;2023-12-07T23:06:21;-3.70;99.90
37874;DHT22;23709;48.078;11.684;2023-12-07T23:08:54;-3.80;99.90
37874;DHT22;23709;48.078;11.684;2023-12-07T23:11:26;-3.90;99.90
37874;DHT22;23709;48.078;11.684;2023-12-07T23:13:58;-3.80;99.90
37874;DHT22;23709;48.078;11.684;2023-12-07T23:16:31;-3.80;99.90
37874;DHT22;23709;48.078;11.684;2023-12-07T23:19:03;-3.80;99.90
37874;DHT22;23709;48.078;11.684;2023-12-07T23:21:36;-3.80;99.90
37874;DHT22;23709;48.078;11.684;2023-12-07T23:24:09;-3.80;99.90
37874;DHT22;23709;48.078;11.684;2023-12-07T23:26:42;-3.90;99.90
37874;DHT22;23709;48.078;11.684;2023-12-07T23:29:15;-3.80;99.90
37874;DHT22;23709;48.078;11.684;2023-12-07T23:31:47;-3.80;99.90
37874;DHT22;23709;48.078;11.684;2023-12-07T23:34:20;-3.80;99.90
37874;DHT22;23709;48.078;11.684;2023-12-07T23:36:52;-3.80;99.90
37874;DHT22;23709;48.078;11.684;2023-12-07T23:39:24;-3.80;99.90
37874;DHT22;23709;48.078;11.684;2023-12-07T23:41:56;-3.80;99.90
37874;DHT22;23709;48.078;11.684;2023-12-07T23:44:29;-3.90;99.90
37874;DHT22;23709;48.078;11.684;2023-12-07T23:47:01;-3.90;99.90
37874;DHT22;23709;48.078;11.684;2023-12-07T23:49:34;-4.00;99.90
37874;DHT22;23709;48.078;11.684;2023-12-07T23:52:07;-4.00;99.90
37874;DHT22;23709;48.078;11.684;2023-12-07T23:54:39;-3.90;99.90
37874;DHT22;23709;48.078;11.684;2023-12-07T23:57:11;-3.90;99.90
37874;DHT22;23709;48.078;11.684;2023-12-07T23:59:44;-3.90;99.90
